sensor_id;sensor_type;location;lat;lon;timestamp;temperature;humidity
25024;DHT22;13033;50.936;5.334;2022-12-05T00:01:57;4.10;99.90
25024;DHT22;13033;50.936;5.334;2022-12-05T00:04:23;4.10;99.90
25024;DHT22;13033;50.936;5.334;2022-12-05T00:06:48;4.10;99.90
25024;DHT22;13033;50.936;5.334;2022-12-05T00:09:14;4.20;99.90
25024;DHT22;13033;50.936;5.334;2022-12-05T00:11:42;4.00;99.90
25024;DHT22;13033;50.936;5.334;2022-12-05T00:14:09;4.10;99.90
25024;DHT22;13033;50.936;5.334;2022-12-05T00:16:37;4.30;99.90
25024;DHT22;13033;50.936;5.334;2022-12-05T00:19:05;4.20;99.90
25024;DHT22;13033;50.936;5.334;2022-12-05T00:21:34;4.20;99.90
25024;DHT22;13033;50.936;5.334;2022-12-05T00:24:01;4.10;99.90
25024;DHT22;13033;50.936;5.334;2022-12-05T00:26:27;4.20;99.90
25024;DHT22;13033;50.936;5.334;2022-12-05T00:28:53;4.10;99.90
25024;DHT22;13033;50.936;5.334;2022-12-05T00:31:23;4.20;99.90
25024;DHT22;13033;50.936;5.334;2022-12-05T00:33:49;4.30;99.90
25024;DHT22;13033;50.936;5.334;2022-12-05T00:36:25;4.30;99.90
25024;DHT22;13033;50.936;5.334;2022-12-05T00:38:52;4.40;99.90
25024;DHT22;13033;50.936;5.334;2022-12-05T00:41:21;4.40;99.90
25024;DHT22;13033;50.936;5.334;2022-12-05T00:43:47;4.40;99.90
25024;DHT22;13033;50.936;5.334;2022-12-05T00:46:15;4.40;99.90
25024;DHT22;13033;50.936;5.334;2022-12-05T00:48:42;4.40;99.90
25024;DHT22;13033;50.936;5.334;2022-12-05T00:51:10;4.40;99.90
25024;DHT22;13033;50.936;5.334;2022-12-05T00:53:36;4.40;99.90
25024;DHT22;13033;50.936;5.334;2022-12-05T00:56:08;4.40;99.90
25024;DHT22;13033;50.936;5.334;2022-12-05T00:58:35;4.40;99.90
25024;DHT22;13033;50.936;5.334;2022-12-05T01:01:13;4.40;99.90
25024;DHT22;13033;50.936;5.334;2022-12-05T01:03:40;4.30;99.90
25024;DHT22;13033;50.936;5.334;2022-12-05T01:06:06;4.40;99.90
25024;DHT22;13033;50.936;5.334;2022-12-05T01:08:33;4.40;99.90
25024;DHT22;13033;50.936;5.334;2022-12-05T01:10:59;4.40;99.90
25024;DHT22;13033;50.936;5.334;2022-12-05T01:13:26;4.50;99.90
25024;DHT22;13033;50.936;5.334;2022-12-05T01:15:52;4.40;99.90
25024;DHT22;13033;50.936;5.334;2022-12-05T01:18:18;4.40;99.90
25024;DHT22;13033;50.936;5.334;2022-12-05T01:20:45;4.40;99.90
25024;DHT22;13033;50.936;5.334;2022-12-05T01:23:11;4.50;99.90
25024;DHT22;13033;50.936;5.334;2022-12-05T01:25:45;4.50;99.90
25024;DHT22;13033;50.936;5.334;2022-12-05T01:28:12;4.50;99.90
25024;DHT22;13033;50.936;5.334;2022-12-05T01:30:44;4.50;99.90
25024;DHT22;13033;50.936;5.334;2022-12-05T01:33:11;4.50;99.90
25024;DHT22;13033;50.936;5.334;2022-12-05T01:35:39;4.60;99.90
25024;DHT22;13033;50.936;5.334;2022-12-05T01:38:05;4.50;99.90
25024;DHT22;13033;50.936;5.334;2022-12-05T01:40:32;4.70;99.90
25024;DHT22;13033;50.936;5.334;2022-12-05T01:43:00;4.60;99.90
25024;DHT22;13033;50.936;5.334;2022-12-05T01:45:38;4.60;99.90
25024;DHT22;13033;50.936;5.334;2022-12-05T01:48:12;4.70;99.90
25024;DHT22;13033;50.936;5.334;2022-12-05T01:50:39;4.70;99.90
25024;DHT22;13033;50.936;5.334;2022-12-05T01:53:05;4.50;99.90
25024;DHT22;13033;50.936;5.334;2022-12-05T01:55:33;4.50;99.90
25024;DHT22;13033;50.936;5.334;2022-12-05T01:58:01;4.60;99.90
25024;DHT22;13033;50.936;5.334;2022-12-05T02:00:27;4.60;99.90
25024;DHT22;13033;50.936;5.334;2022-12-05T02:02:59;4.60;99.90
25024;DHT22;13033;50.936;5.334;2022-12-05T02:05:30;4.60;99.90
25024;DHT22;13033;50.936;5.334;2022-12-05T02:07:57;4.60;99.90
25024;DHT22;13033;50.936;5.334;2022-12-05T02:10:25;4.50;99.90
25024;DHT22;13033;50.936;5.334;2022-12-05T02:12:52;4.50;99.90
25024;DHT22;13033;50.936;5.334;2022-12-05T02:15:31;4.50;99.90
25024;DHT22;13033;50.936;5.334;2022-12-05T02:18:38;4.50;99.90
25024;DHT22;13033;50.936;5.334;2022-12-05T02:21:41;4.40;99.90
25024;DHT22;13033;50.936;5.334;2022-12-05T02:27:24;4.30;99.90
25024;DHT22;13033;50.936;5.334;2022-12-05T02:30:07;4.40;99.90
25024;DHT22;13033;50.936;5.334;2022-12-05T02:32:50;4.40;99.90
25024;DHT22;13033;50.936;5.334;2022-12-05T02:35:38;4.50;99.90
25024;DHT22;13033;50.936;5.334;2022-12-05T02:38:16;4.60;99.90
25024;DHT22;13033;50.936;5.334;2022-12-05T02:44:03;4.60;99.90
25024;DHT22;13033;50.936;5.334;2022-12-05T02:46:31;4.50;99.90
25024;DHT22;13033;50.936;5.334;2022-12-05T02:49:02;4.60;99.90
25024;DHT22;13033;50.936;5.334;2022-12-05T02:51:32;4.60;99.90
25024;DHT22;13033;50.936;5.334;2022-12-05T02:54:02;4.50;99.90
25024;DHT22;13033;50.936;5.334;2022-12-05T02:56:29;4.40;99.90
25024;DHT22;13033;50.936;5.334;2022-12-05T02:58:57;4.40;99.90
25024;DHT22;13033;50.936;5.334;2022-12-05T03:01:29;4.50;99.90
25024;DHT22;13033;50.936;5.334;2022-12-05T03:03:58;4.60;99.90
25024;DHT22;13033;50.936;5.334;2022-12-05T03:06:30;4.60;99.90
25024;DHT22;13033;50.936;5.334;2022-12-05T03:09:12;4.50;99.90
25024;DHT22;13033;50.936;5.334;2022-12-05T03:11:51;4.60;99.90
25024;DHT22;13033;50.936;5.334;2022-12-05T03:14:28;4.50;99.90
25024;DHT22;13033;50.936;5.334;2022-12-05T03:17:00;4.30;99.90
25024;DHT22;13033;50.936;5.334;2022-12-05T03:19:34;4.30;99.90
25024;DHT22;13033;50.936;5.334;2022-12-05T03:22:17;4.30;99.90
25024;DHT22;13033;50.936;5.334;2022-12-05T03:24:47;4.40;99.90
25024;DHT22;13033;50.936;5.334;2022-12-05T03:27:26;4.50;99.90
25024;DHT22;13033;50.936;5.334;2022-12-05T03:30:03;4.50;99.90
25024;DHT22;13033;50.936;5.334;2022-12-05T03:32:42;4.40;99.90
25024;DHT22;13033;50.936;5.334;2022-12-05T03:35:38;4.40;99.90
25024;DHT22;13033;50.936;5.334;2022-12-05T03:38:24;4.20;99.90
25024;DHT22;13033;50.936;5.334;2022-12-05T03:41:33;4.10;99.90
25024;DHT22;13033;50.936;5.334;2022-12-05T03:44:05;4.10;99.90
25024;DHT22;13033;50.936;5.334;2022-12-05T03:46:35;4.10;99.90
25024;DHT22;13033;50.936;5.334;2022-12-05T03:52:11;4.20;99.90
25024;DHT22;13033;50.936;5.334;2022-12-05T03:54:45;4.20;99.90
25024;DHT22;13033;50.936;5.334;2022-12-05T04:00:30;4.20;99.90
25024;DHT22;13033;50.936;5.334;2022-12-05T04:03:10;4.30;99.90
25024;DHT22;13033;50.936;5.334;2022-12-05T04:05:48;4.30;99.90
25024;DHT22;13033;50.936;5.334;2022-12-05T04:08:39;4.20;99.90
25024;DHT22;13033;50.936;5.334;2022-12-05T04:11:14;4.10;99.90
25024;DHT22;13033;50.936;5.334;2022-12-05T04:13:48;4.20;99.90
25024;DHT22;13033;50.936;5.334;2022-12-05T04:16:22;4.20;99.90
25024;DHT22;13033;50.936;5.334;2022-12-05T04:19:26;4.20;99.90
25024;DHT22;13033;50.936;5.334;2022-12-05T04:21:55;4.20;99.90
25024;DHT22;13033;50.936;5.334;2022-12-05T04:24:25;4.20;99.90
25024;DHT22;13033;50.936;5.334;2022-12-05T04:27:34;4.20;99.90
25024;DHT22;13033;50.936;5.334;2022-12-05T04:30:05;4.20;99.90
25024;DHT22;13033;50.936;5.334;2022-12-05T04:32:44;4.20;99.90
25024;DHT22;13033;50.936;5.334;2022-12-05T04:35:23;4.20;99.90
25024;DHT22;13033;50.936;5.334;2022-12-05T04:37:54;4.10;99.90
25024;DHT22;13033;50.936;5.334;2022-12-05T04:40:31;4.20;99.90
25024;DHT22;13033;50.936;5.334;2022-12-05T04:42:58;4.10;99.90
25024;DHT22;13033;50.936;5.334;2022-12-05T04:45:25;4.20;99.90
25024;DHT22;13033;50.936;5.334;2022-12-05T04:47:56;4.20;99.90
25024;DHT22;13033;50.936;5.334;2022-12-05T04:50:23;4.20;99.90
25024;DHT22;13033;50.936;5.334;2022-12-05T04:52:53;4.20;99.90
25024;DHT22;13033;50.936;5.334;2022-12-05T04:55:23;4.20;99.90
25024;DHT22;13033;50.936;5.334;2022-12-05T04:58:13;4.20;99.90
25024;DHT22;13033;50.936;5.334;2022-12-05T05:00:49;4.30;99.90
25024;DHT22;13033;50.936;5.334;2022-12-05T05:06:10;4.40;99.90
25024;DHT22;13033;50.936;5.334;2022-12-05T05:08:36;4.40;99.90
25024;DHT22;13033;50.936;5.334;2022-12-05T05:11:13;4.30;99.90
25024;DHT22;13033;50.936;5.334;2022-12-05T05:13:39;4.30;99.90
25024;DHT22;13033;50.936;5.334;2022-12-05T05:16:05;4.30;99.90
25024;DHT22;13033;50.936;5.334;2022-12-05T05:18:32;4.30;99.90
25024;DHT22;13033;50.936;5.334;2022-12-05T05:20:58;4.30;99.90
25024;DHT22;13033;50.936;5.334;2022-12-05T05:23:24;4.20;99.90
25024;DHT22;13033;50.936;5.334;2022-12-05T05:25:54;4.10;99.90
25024;DHT22;13033;50.936;5.334;2022-12-05T05:28:21;4.00;99.90
25024;DHT22;13033;50.936;5.334;2022-12-05T05:30:46;4.00;99.90
25024;DHT22;13033;50.936;5.334;2022-12-05T05:33:13;4.10;99.90
25024;DHT22;13033;50.936;5.334;2022-12-05T05:35:39;4.10;99.90
25024;DHT22;13033;50.936;5.334;2022-12-05T05:38:05;4.10;99.90
25024;DHT22;13033;50.936;5.334;2022-12-05T05:40:34;4.10;99.90
25024;DHT22;13033;50.936;5.334;2022-12-05T05:43:00;4.20;99.90
25024;DHT22;13033;50.936;5.334;2022-12-05T05:45:26;4.20;99.90
25024;DHT22;13033;50.936;5.334;2022-12-05T05:47:52;4.40;99.90
25024;DHT22;13033;50.936;5.334;2022-12-05T05:50:17;4.40;99.90
25024;DHT22;13033;50.936;5.334;2022-12-05T05:52:43;4.40;99.90
25024;DHT22;13033;50.936;5.334;2022-12-05T05:55:09;4.30;99.90
25024;DHT22;13033;50.936;5.334;2022-12-05T05:57:35;4.20;99.90
25024;DHT22;13033;50.936;5.334;2022-12-05T06:00:04;4.20;99.90
25024;DHT22;13033;50.936;5.334;2022-12-05T06:02:31;4.10;99.90
25024;DHT22;13033;50.936;5.334;2022-12-05T06:04:57;4.10;99.90
25024;DHT22;13033;50.936;5.334;2022-12-05T06:07:24;4.20;99.90
25024;DHT22;13033;50.936;5.334;2022-12-05T06:09:49;4.00;99.90
25024;DHT22;13033;50.936;5.334;2022-12-05T06:12:15;4.20;99.90
25024;DHT22;13033;50.936;5.334;2022-12-05T06:14:41;4.00;99.90
25024;DHT22;13033;50.936;5.334;2022-12-05T06:17:07;4.10;99.90
25024;DHT22;13033;50.936;5.334;2022-12-05T06:19:32;4.10;99.90
25024;DHT22;13033;50.936;5.334;2022-12-05T06:21:58;4.20;99.90
25024;DHT22;13033;50.936;5.334;2022-12-05T06:24:23;4.20;99.90
25024;DHT22;13033;50.936;5.334;2022-12-05T06:26:49;4.20;99.90
25024;DHT22;13033;50.936;5.334;2022-12-05T06:29:15;4.30;99.90
25024;DHT22;13033;50.936;5.334;2022-12-05T06:31:41;4.30;99.90
25024;DHT22;13033;50.936;5.334;2022-12-05T06:34:07;4.40;99.90
25024;DHT22;13033;50.936;5.334;2022-12-05T06:36:33;4.20;99.90
25024;DHT22;13033;50.936;5.334;2022-12-05T06:38:59;4.10;99.90
25024;DHT22;13033;50.936;5.334;2022-12-05T06:41:25;4.00;99.90
25024;DHT22;13033;50.936;5.334;2022-12-05T06:43:55;4.00;99.90
25024;DHT22;13033;50.936;5.334;2022-12-05T06:46:22;4.20;99.90
25024;DHT22;13033;50.936;5.334;2022-12-05T06:48:51;4.10;99.90
25024;DHT22;13033;50.936;5.334;2022-12-05T06:51:18;4.00;99.90
25024;DHT22;13033;50.936;5.334;2022-12-05T06:53:44;4.10;99.90
25024;DHT22;13033;50.936;5.334;2022-12-05T06:56:15;4.00;99.90
25024;DHT22;13033;50.936;5.334;2022-12-05T06:58:45;3.90;99.90
25024;DHT22;13033;50.936;5.334;2022-12-05T07:01:13;3.80;99.90
25024;DHT22;13033;50.936;5.334;2022-12-05T07:03:59;3.80;99.90
25024;DHT22;13033;50.936;5.334;2022-12-05T07:06:25;4.00;99.90
25024;DHT22;13033;50.936;5.334;2022-12-05T07:08:51;4.10;99.90
25024;DHT22;13033;50.936;5.334;2022-12-05T07:11:17;4.10;99.90
25024;DHT22;13033;50.936;5.334;2022-12-05T07:13:42;3.90;99.90
25024;DHT22;13033;50.936;5.334;2022-12-05T07:16:08;3.90;99.90
25024;DHT22;13033;50.936;5.334;2022-12-05T07:18:35;4.10;99.90
25024;DHT22;13033;50.936;5.334;2022-12-05T07:21:06;4.50;99.90
25024;DHT22;13033;50.936;5.334;2022-12-05T07:23:32;4.40;99.90
25024;DHT22;13033;50.936;5.334;2022-12-05T07:25:57;4.20;99.90
25024;DHT22;13033;50.936;5.334;2022-12-05T07:28:23;4.00;99.90
25024;DHT22;13033;50.936;5.334;2022-12-05T07:31:01;4.00;99.90
25024;DHT22;13033;50.936;5.334;2022-12-05T07:33:28;4.00;99.90
25024;DHT22;13033;50.936;5.334;2022-12-05T07:36:02;4.10;99.90
25024;DHT22;13033;50.936;5.334;2022-12-05T07:38:28;4.00;99.90
25024;DHT22;13033;50.936;5.334;2022-12-05T07:40:54;4.10;99.90
25024;DHT22;13033;50.936;5.334;2022-12-05T07:43:20;4.20;99.90
25024;DHT22;13033;50.936;5.334;2022-12-05T07:45:45;4.00;99.90
25024;DHT22;13033;50.936;5.334;2022-12-05T07:48:11;3.90;99.90
25024;DHT22;13033;50.936;5.334;2022-12-05T07:50:37;4.00;99.90
25024;DHT22;13033;50.936;5.334;2022-12-05T07:53:03;3.90;99.90
25024;DHT22;13033;50.936;5.334;2022-12-05T07:55:28;3.90;99.90
25024;DHT22;13033;50.936;5.334;2022-12-05T07:57:54;4.10;99.90
25024;DHT22;13033;50.936;5.334;2022-12-05T08:00:20;3.90;99.90
25024;DHT22;13033;50.936;5.334;2022-12-05T08:02:46;3.90;99.90
25024;DHT22;13033;50.936;5.334;2022-12-05T08:05:12;4.00;99.90
25024;DHT22;13033;50.936;5.334;2022-12-05T08:07:40;4.10;99.90
25024;DHT22;13033;50.936;5.334;2022-12-05T08:10:07;4.10;99.90
25024;DHT22;13033;50.936;5.334;2022-12-05T08:12:32;4.20;99.90
25024;DHT22;13033;50.936;5.334;2022-12-05T08:14:58;4.20;99.90
25024;DHT22;13033;50.936;5.334;2022-12-05T08:17:24;4.20;99.90
25024;DHT22;13033;50.936;5.334;2022-12-05T08:19:51;4.10;99.90
25024;DHT22;13033;50.936;5.334;2022-12-05T08:22:16;4.20;99.90
25024;DHT22;13033;50.936;5.334;2022-12-05T08:24:42;4.30;99.90
25024;DHT22;13033;50.936;5.334;2022-12-05T08:27:09;4.30;99.90
25024;DHT22;13033;50.936;5.334;2022-12-05T08:29:34;4.20;99.90
25024;DHT22;13033;50.936;5.334;2022-12-05T08:32:00;4.30;99.90
25024;DHT22;13033;50.936;5.334;2022-12-05T08:34:25;4.70;99.90
25024;DHT22;13033;50.936;5.334;2022-12-05T08:36:51;4.80;99.90
25024;DHT22;13033;50.936;5.334;2022-12-05T08:39:18;4.80;99.90
25024;DHT22;13033;50.936;5.334;2022-12-05T08:41:45;4.60;99.90
25024;DHT22;13033;50.936;5.334;2022-12-05T08:44:12;4.50;99.90
25024;DHT22;13033;50.936;5.334;2022-12-05T08:46:41;4.40;99.90
25024;DHT22;13033;50.936;5.334;2022-12-05T08:49:09;4.20;99.90
25024;DHT22;13033;50.936;5.334;2022-12-05T08:51:34;4.30;99.90
25024;DHT22;13033;50.936;5.334;2022-12-05T08:54:04;4.40;99.90
25024;DHT22;13033;50.936;5.334;2022-12-05T08:56:30;4.40;99.90
25024;DHT22;13033;50.936;5.334;2022-12-05T08:58:57;4.40;99.90
25024;DHT22;13033;50.936;5.334;2022-12-05T09:01:23;4.50;99.90
25024;DHT22;13033;50.936;5.334;2022-12-05T09:03:50;4.50;99.90
25024;DHT22;13033;50.936;5.334;2022-12-05T09:06:21;4.50;99.90
25024;DHT22;13033;50.936;5.334;2022-12-05T09:08:47;4.40;99.90
25024;DHT22;13033;50.936;5.334;2022-12-05T09:11:19;4.60;99.90
25024;DHT22;13033;50.936;5.334;2022-12-05T09:13:45;4.80;99.90
25024;DHT22;13033;50.936;5.334;2022-12-05T09:16:23;4.70;99.90
25024;DHT22;13033;50.936;5.334;2022-12-05T09:18:49;4.70;99.90
25024;DHT22;13033;50.936;5.334;2022-12-05T09:21:21;4.80;99.90
25024;DHT22;13033;50.936;5.334;2022-12-05T09:23:48;4.50;99.90
25024;DHT22;13033;50.936;5.334;2022-12-05T09:26:16;4.80;99.90
25024;DHT22;13033;50.936;5.334;2022-12-05T09:28:43;4.80;99.90
25024;DHT22;13033;50.936;5.334;2022-12-05T09:31:14;4.80;99.90
25024;DHT22;13033;50.936;5.334;2022-12-05T09:33:40;4.90;99.90
25024;DHT22;13033;50.936;5.334;2022-12-05T09:36:18;5.10;99.90
25024;DHT22;13033;50.936;5.334;2022-12-05T09:38:43;4.90;99.90
25024;DHT22;13033;50.936;5.334;2022-12-05T09:50:16;4.90;99.90
25024;DHT22;13033;50.936;5.334;2022-12-05T09:53:04;4.80;99.90
25024;DHT22;13033;50.936;5.334;2022-12-05T10:01:47;4.60;99.90
25024;DHT22;13033;50.936;5.334;2022-12-05T10:09:29;4.60;99.90
25024;DHT22;13033;50.936;5.334;2022-12-05T10:14:44;4.80;99.90
25024;DHT22;13033;50.936;5.334;2022-12-05T10:17:22;4.60;99.90
25024;DHT22;13033;50.936;5.334;2022-12-05T10:19:52;4.70;99.90
25024;DHT22;13033;50.936;5.334;2022-12-05T10:22:49;4.50;99.90
25024;DHT22;13033;50.936;5.334;2022-12-05T10:25:13;4.70;99.90
25024;DHT22;13033;50.936;5.334;2022-12-05T10:27:55;4.90;99.90
25024;DHT22;13033;50.936;5.334;2022-12-05T10:30:30;4.70;99.90
25024;DHT22;13033;50.936;5.334;2022-12-05T10:33:02;4.40;99.90
25024;DHT22;13033;50.936;5.334;2022-12-05T10:35:38;4.30;99.90
25024;DHT22;13033;50.936;5.334;2022-12-05T10:38:05;4.50;99.90
25024;DHT22;13033;50.936;5.334;2022-12-05T10:40:35;4.40;99.90
25024;DHT22;13033;50.936;5.334;2022-12-05T10:43:06;4.50;99.90
25024;DHT22;13033;50.936;5.334;2022-12-05T10:45:42;4.20;99.90
25024;DHT22;13033;50.936;5.334;2022-12-05T10:48:10;4.20;99.90
25024;DHT22;13033;50.936;5.334;2022-12-05T10:50:38;4.40;99.90
25024;DHT22;13033;50.936;5.334;2022-12-05T10:53:05;4.20;99.90
25024;DHT22;13033;50.936;5.334;2022-12-05T10:55:43;4.10;99.90
25024;DHT22;13033;50.936;5.334;2022-12-05T10:58:18;4.20;99.90
25024;DHT22;13033;50.936;5.334;2022-12-05T11:01:06;4.40;99.90
25024;DHT22;13033;50.936;5.334;2022-12-05T11:03:37;4.60;99.90
25024;DHT22;13033;50.936;5.334;2022-12-05T11:06:28;4.50;99.90
25024;DHT22;13033;50.936;5.334;2022-12-05T11:08:57;4.70;99.90
25024;DHT22;13033;50.936;5.334;2022-12-05T11:11:24;4.90;99.90
25024;DHT22;13033;50.936;5.334;2022-12-05T11:14:25;4.70;99.90
25024;DHT22;13033;50.936;5.334;2022-12-05T11:16:56;4.80;99.90
25024;DHT22;13033;50.936;5.334;2022-12-05T11:19:33;4.90;99.90
25024;DHT22;13033;50.936;5.334;2022-12-05T11:22:00;4.60;99.90
25024;DHT22;13033;50.936;5.334;2022-12-05T11:26:57;4.20;99.90
25024;DHT22;13033;50.936;5.334;2022-12-05T11:29:33;4.30;99.90
25024;DHT22;13033;50.936;5.334;2022-12-05T11:31:59;4.20;99.90
25024;DHT22;13033;50.936;5.334;2022-12-05T11:34:39;4.30;99.90
25024;DHT22;13033;50.936;5.334;2022-12-05T11:37:14;4.30;99.90
25024;DHT22;13033;50.936;5.334;2022-12-05T11:39:42;4.30;99.90
25024;DHT22;13033;50.936;5.334;2022-12-05T12:32:38;4.30;99.90
25024;DHT22;13033;50.936;5.334;2022-12-05T12:37:48;4.20;99.90
25024;DHT22;13033;50.936;5.334;2022-12-05T12:40:29;4.40;99.90
25024;DHT22;13033;50.936;5.334;2022-12-05T12:45:55;4.30;99.90
25024;DHT22;13033;50.936;5.334;2022-12-05T12:51:13;4.50;99.90
25024;DHT22;13033;50.936;5.334;2022-12-05T12:58:53;4.20;99.90
25024;DHT22;13033;50.936;5.334;2022-12-05T13:01:51;4.20;99.90
25024;DHT22;13033;50.936;5.334;2022-12-05T13:04:47;4.20;99.90
25024;DHT22;13033;50.936;5.334;2022-12-05T13:07:20;4.30;99.90
25024;DHT22;13033;50.936;5.334;2022-12-05T13:09:56;4.40;99.90
25024;DHT22;13033;50.936;5.334;2022-12-05T13:12:28;4.30;99.90
25024;DHT22;13033;50.936;5.334;2022-12-05T13:15:06;4.30;99.90
25024;DHT22;13033;50.936;5.334;2022-12-05T13:17:36;4.50;99.90
25024;DHT22;13033;50.936;5.334;2022-12-05T13:20:03;4.40;99.90
25024;DHT22;13033;50.936;5.334;2022-12-05T13:22:30;4.70;99.90
25024;DHT22;13033;50.936;5.334;2022-12-05T13:24:56;4.60;99.90
25024;DHT22;13033;50.936;5.334;2022-12-05T13:27:24;4.60;99.90
25024;DHT22;13033;50.936;5.334;2022-12-05T13:29:59;4.60;99.90
25024;DHT22;13033;50.936;5.334;2022-12-05T13:32:39;4.50;99.90
25024;DHT22;13033;50.936;5.334;2022-12-05T13:35:08;4.50;99.90
25024;DHT22;13033;50.936;5.334;2022-12-05T13:37:36;4.50;99.90
25024;DHT22;13033;50.936;5.334;2022-12-05T13:40:30;4.30;99.90
25024;DHT22;13033;50.936;5.334;2022-12-05T13:43:20;4.30;99.90
25024;DHT22;13033;50.936;5.334;2022-12-05T13:48:24;4.20;99.90
25024;DHT22;13033;50.936;5.334;2022-12-05T13:51:07;4.40;99.90
25024;DHT22;13033;50.936;5.334;2022-12-05T13:53:44;4.40;99.90
25024;DHT22;13033;50.936;5.334;2022-12-05T14:17:43;4.10;99.90
25024;DHT22;13033;50.936;5.334;2022-12-05T14:33:36;4.20;99.90
25024;DHT22;13033;50.936;5.334;2022-12-05T14:36:06;4.20;99.90
25024;DHT22;13033;50.936;5.334;2022-12-05T14:38:34;4.10;99.90
25024;DHT22;13033;50.936;5.334;2022-12-05T14:41:21;4.10;99.90
25024;DHT22;13033;50.936;5.334;2022-12-05T14:43:52;4.40;99.90
25024;DHT22;13033;50.936;5.334;2022-12-05T14:46:27;4.30;99.90
25024;DHT22;13033;50.936;5.334;2022-12-05T14:48:53;4.50;99.90
25024;DHT22;13033;50.936;5.334;2022-12-05T14:54:01;4.40;99.90
25024;DHT22;13033;50.936;5.334;2022-12-05T14:56:31;4.20;99.90
25024;DHT22;13033;50.936;5.334;2022-12-05T14:59:19;4.30;99.90
25024;DHT22;13033;50.936;5.334;2022-12-05T15:01:54;4.20;99.90
25024;DHT22;13033;50.936;5.334;2022-12-05T15:07:11;4.20;99.90
25024;DHT22;13033;50.936;5.334;2022-12-05T15:12:11;4.10;99.90
25024;DHT22;13033;50.936;5.334;2022-12-05T15:14:44;4.00;99.90
25024;DHT22;13033;50.936;5.334;2022-12-05T15:17:21;3.90;99.90
25024;DHT22;13033;50.936;5.334;2022-12-05T15:20:03;3.90;99.90
25024;DHT22;13033;50.936;5.334;2022-12-05T15:22:35;4.10;99.90
25024;DHT22;13033;50.936;5.334;2022-12-05T15:25:34;4.20;99.90
25024;DHT22;13033;50.936;5.334;2022-12-05T15:28:05;4.10;99.90
25024;DHT22;13033;50.936;5.334;2022-12-05T15:30:41;3.90;99.90
25024;DHT22;13033;50.936;5.334;2022-12-05T15:33:11;4.00;99.90
25024;DHT22;13033;50.936;5.334;2022-12-05T15:35:37;3.90;99.90
25024;DHT22;13033;50.936;5.334;2022-12-05T15:38:13;4.00;99.90
25024;DHT22;13033;50.936;5.334;2022-12-05T15:40:45;4.10;99.90
25024;DHT22;13033;50.936;5.334;2022-12-05T15:43:38;4.00;99.90
25024;DHT22;13033;50.936;5.334;2022-12-05T15:48:33;4.00;99.90
25024;DHT22;13033;50.936;5.334;2022-12-05T15:50:59;4.10;99.90
25024;DHT22;13033;50.936;5.334;2022-12-05T15:53:34;3.80;99.90
25024;DHT22;13033;50.936;5.334;2022-12-05T15:56:05;3.70;99.90
25024;DHT22;13033;50.936;5.334;2022-12-05T16:01:14;3.80;99.90
25024;DHT22;13033;50.936;5.334;2022-12-05T16:04:13;3.80;99.90
25024;DHT22;13033;50.936;5.334;2022-12-05T16:06:48;3.80;99.90
25024;DHT22;13033;50.936;5.334;2022-12-05T16:09:20;3.80;99.90
25024;DHT22;13033;50.936;5.334;2022-12-05T16:11:54;3.90;99.90
25024;DHT22;13033;50.936;5.334;2022-12-05T16:14:22;3.90;99.90
25024;DHT22;13033;50.936;5.334;2022-12-05T16:16:51;3.90;99.90
25024;DHT22;13033;50.936;5.334;2022-12-05T16:19:22;3.90;99.90
25024;DHT22;13033;50.936;5.334;2022-12-05T16:24:39;3.90;99.90
25024;DHT22;13033;50.936;5.334;2022-12-05T16:27:16;3.70;99.90
25024;DHT22;13033;50.936;5.334;2022-12-05T16:29:42;3.60;99.90
25024;DHT22;13033;50.936;5.334;2022-12-05T16:32:27;3.60;99.90
25024;DHT22;13033;50.936;5.334;2022-12-05T16:34:53;3.70;99.90
25024;DHT22;13033;50.936;5.334;2022-12-05T16:37:25;3.90;99.90
25024;DHT22;13033;50.936;5.334;2022-12-05T16:39:51;3.70;99.90
25024;DHT22;13033;50.936;5.334;2022-12-05T16:42:28;3.70;99.90
25024;DHT22;13033;50.936;5.334;2022-12-05T16:45:00;3.70;99.90
25024;DHT22;13033;50.936;5.334;2022-12-05T16:50:31;3.70;99.90
25024;DHT22;13033;50.936;5.334;2022-12-05T16:53:26;3.80;99.90
25024;DHT22;13033;50.936;5.334;2022-12-05T16:55:52;3.90;99.90
25024;DHT22;13033;50.936;5.334;2022-12-05T16:58:25;3.70;99.90
25024;DHT22;13033;50.936;5.334;2022-12-05T17:01:01;3.70;99.90
25024;DHT22;13033;50.936;5.334;2022-12-05T17:03:28;3.60;99.90
25024;DHT22;13033;50.936;5.334;2022-12-05T17:05:54;3.70;99.90
25024;DHT22;13033;50.936;5.334;2022-12-05T17:08:20;3.70;99.90
25024;DHT22;13033;50.936;5.334;2022-12-05T17:10:46;3.60;99.90
25024;DHT22;13033;50.936;5.334;2022-12-05T17:13:13;3.70;99.90
25024;DHT22;13033;50.936;5.334;2022-12-05T17:15:40;3.80;99.90
25024;DHT22;13033;50.936;5.334;2022-12-05T17:18:13;3.70;99.90
25024;DHT22;13033;50.936;5.334;2022-12-05T17:20:42;3.80;99.90
25024;DHT22;13033;50.936;5.334;2022-12-05T17:23:10;3.80;99.90
25024;DHT22;13033;50.936;5.334;2022-12-05T17:25:37;3.80;99.90
25024;DHT22;13033;50.936;5.334;2022-12-05T17:28:03;4.10;99.90
25024;DHT22;13033;50.936;5.334;2022-12-05T17:30:29;3.90;99.90
25024;DHT22;13033;50.936;5.334;2022-12-05T17:32:55;3.80;99.90
25024;DHT22;13033;50.936;5.334;2022-12-05T17:35:21;3.70;99.90
25024;DHT22;13033;50.936;5.334;2022-12-05T17:37:47;3.60;99.90
25024;DHT22;13033;50.936;5.334;2022-12-05T17:40:13;3.70;99.90
25024;DHT22;13033;50.936;5.334;2022-12-05T17:42:39;3.60;99.90
25024;DHT22;13033;50.936;5.334;2022-12-05T17:45:10;3.80;99.90
25024;DHT22;13033;50.936;5.334;2022-12-05T17:47:36;3.80;99.90
25024;DHT22;13033;50.936;5.334;2022-12-05T17:50:03;3.90;99.90
25024;DHT22;13033;50.936;5.334;2022-12-05T17:52:29;4.00;99.90
25024;DHT22;13033;50.936;5.334;2022-12-05T17:54:55;4.10;99.90
25024;DHT22;13033;50.936;5.334;2022-12-05T17:57:20;4.10;99.90
25024;DHT22;13033;50.936;5.334;2022-12-05T17:59:46;4.20;99.90
25024;DHT22;13033;50.936;5.334;2022-12-05T18:02:11;4.20;99.90
25024;DHT22;13033;50.936;5.334;2022-12-05T18:04:37;4.10;99.90
25024;DHT22;13033;50.936;5.334;2022-12-05T18:07:03;4.20;99.90
25024;DHT22;13033;50.936;5.334;2022-12-05T18:09:29;4.20;99.90
25024;DHT22;13033;50.936;5.334;2022-12-05T18:11:55;4.30;99.90
25024;DHT22;13033;50.936;5.334;2022-12-05T18:14:21;4.30;99.90
25024;DHT22;13033;50.936;5.334;2022-12-05T18:16:47;4.30;99.90
25024;DHT22;13033;50.936;5.334;2022-12-05T18:19:13;4.00;99.90
25024;DHT22;13033;50.936;5.334;2022-12-05T18:21:38;4.10;99.90
25024;DHT22;13033;50.936;5.334;2022-12-05T18:24:04;4.10;99.90
25024;DHT22;13033;50.936;5.334;2022-12-05T18:26:30;4.00;99.90
25024;DHT22;13033;50.936;5.334;2022-12-05T18:28:55;4.10;99.90
25024;DHT22;13033;50.936;5.334;2022-12-05T18:31:23;4.40;99.90
25024;DHT22;13033;50.936;5.334;2022-12-05T18:33:49;4.30;99.90
25024;DHT22;13033;50.936;5.334;2022-12-05T18:36:17;4.20;99.90
25024;DHT22;13033;50.936;5.334;2022-12-05T18:38:54;4.30;99.90
25024;DHT22;13033;50.936;5.334;2022-12-05T18:41:21;4.20;99.90
25024;DHT22;13033;50.936;5.334;2022-12-05T18:43:48;4.10;99.90
25024;DHT22;13033;50.936;5.334;2022-12-05T18:46:13;4.20;99.90
25024;DHT22;13033;50.936;5.334;2022-12-05T18:48:39;4.30;99.90
25024;DHT22;13033;50.936;5.334;2022-12-05T18:51:10;4.30;99.90